Las horas y fechas están en horario UTC
Sumar 1 hora en el horario de invierno y 2 en el de verano

Informes METAR cercanos

 

LEZL - Sevilla (civ/Mil, Spain
Distance from station: NNE 24km
Actualización: 24/06/2018 01:30
Despejado
Despejado
 Viento del SO
Viento: SO 7 km/h
Temperatura: 25°C
Rocío: 13°C
Humedad: 47%
Barómetro: 1014 hPa
Clouds: Despejado
Visibility: 10 km
2018/06/23 23:30 LEZL 232330Z AUTO 23004KT 9999 NCD 25/13 Q1014
LEMO - Moron (sp-Usafb), Spain
Distance from station: E 38km
Actualización: 24/06/2018 01:00
Despejado
Despejado
 Viento del SSO
Viento: SSO 7 km/h
Temperatura: 21°C
Rocío: 16°C
Humedad: 73%
Barómetro: 1015 hPa
Resumen: Despejado
Visibility: greater than 10 km
2018/06/23 23:00 LEMO 232300Z 21004KT CAVOK 21/16 Q1015 NOSIG
LEJR - Jerez (civ/Mil), Spain
Distance from station: S 53km
Actualización: 24/06/2018 01:30
Despejado
Despejado
 Viento del NNO
Viento: NNO 6 km/h
Temperatura: 19°C
Rocío: 16°C
Humedad: 83%
Barómetro: 1014 hPa
Clouds: Despejado
Visibility: 10 km
2018/06/23 23:30 LEJR 232330Z AUTO 33003KT 300V010 9999 NCD 19/16 Q1014
 
LERT - Rota Naval Stati, Spain
Distance from station: SSO 71km
Actualización: 24/06/2018 01:00
Despejado
Despejado
 Viento del calm
Viento: Calma
Temperatura: 21°C
Rocío: 17°C
Humedad: 78%
Barómetro: 1014 hPa
Resumen: Despejado
Visibility: greater than 10 km
2018/06/23 23:00 LERT 232300Z 00000KT CAVOK 21/17 Q1014 NOSIG
LEBA - Cordoba Airport, Spain
Distance from station: ENE 128km
Actualización: 24/06/2018 01:30
Despejado
Despejado
 Viento del OSO
Viento: OSO 7 km/h
Temperatura: 25°C
Rocío: 12°C
Humedad: 44%
Barómetro: 1014 hPa
Clouds: Despejado
Visibility: 10 km
2018/06/23 23:30 LEBA 232330Z AUTO 24004KT 9999 NCD 25/12 Q1014
LXGB - Gibraltar (civ/M, Gibraltar
Distance from station: SSE 137km
Actualización: 24/06/2018 00:50
Despejado
Despejado
 Viento del E
Viento: E 24 km/h
Temperatura: 22°C
Rocío: 20°C
Humedad: 88%
Barómetro: 1016 hPa
Clouds: Despejado
Visibility: 10 km
2018/06/23 22:50 LXGB 232250Z AUTO 08013KT 9999 // NCD 22/20 Q1016
 
LEMG - Malaga (civ/Mil), Spain
Distance from station: ESE 150km
Actualización: 24/06/2018 01:30
Few Clouds
Few Clouds
 Viento del ONO
Viento: ONO 4 km/h
Temperatura: 22°C
Rocío: 16°C
Humedad: 69%
Barómetro: 1015 hPa
Clouds: Few Clouds
Visibility: 10 km
Cloud details: Few Clouds 305 m
2018/06/23 23:30 LEMG 232330Z 29002KT 9999 FEW010 22/16 Q1015 NOSIG
GMTT - Tangier/Boukhalf, Morocco
Distance from station: S 169km
Actualización: 24/06/2018 01:30
Despejado
Despejado
 Viento del SE
Viento: SE 19 km/h
Temperatura: 22°C
Rocío: 18°C
Humedad: 78%
Barómetro: 1015 hPa
Resumen: Despejado
Visibility: greater than 10 km
2018/06/23 23:30 GMTT 232330Z 13010KT CAVOK 22/18 Q1015 NOSIG
LPFR - Faro, Portugal
Distance from station: O 172km
Actualización: 24/06/2018 01:30
Despejado
Despejado
 Viento del varies
Viento: varies 4 km/h
Temperatura: 21°C
Rocío: 19°C
Humedad: 88%
Barómetro: 1014 hPa
Resumen: Despejado
Visibility: greater than 10 km
2018/06/23 23:30 LPFR 232330Z VRB02KT CAVOK 21/19 Q1014
 
LPBJ - Beja (por/Ger-Af, Portugal
Distance from station: ONO 192km
Actualización: 24/06/2018 01:00
Despejado
Despejado
 Viento del varies
Viento: varies 0 km/h
Temperatura: 18°C
Rocío: 16°C
Humedad: 88%
Barómetro: 1015 hPa
Resumen: Despejado
Visibility: greater than 10 km
2018/06/23 23:00 LPBJ 232300Z /////KT CAVOK 18/16 Q1015
LEBZ - Talavera Ab/Bada, Spain
Distance from station: NNO 194km
Actualización: 23/06/2018 21:00
NOT Current
Despejado
Despejado
 Viento del O
Viento: O 13 km/h
Temperatura: 34°C
Rocío: 15°C
Humedad: 32%
Barómetro: 1012 hPa
Resumen: Despejado
Visibility: greater than 10 km
2018/06/23 19:00 LEBZ 231900Z 28007KT CAVOK 34/15 Q1012
LEMD - Madrid/Barajas, Spain
Distance from station: NE 415km
Actualización: 24/06/2018 01:30
Despejado
Despejado
 Viento del ENE
Viento: ENE 6 km/h
Temperatura: 26°C
Rocío: 12°C
Humedad: 42%
Barómetro: 1017 hPa
Resumen: Despejado
Visibility: greater than 10 km
2018/06/23 23:30 LEMD 232330Z 07003KT 020V120 CAVOK 26/12 Q1017 NOSIG